Moran, WY (83013)

7:46 AM MDT on July 30, 2016 (GMT -0600)
Dubois Muni, Dubois, WY | | Change Station
Active Advisory: Fire Weather Warning

Elev 7297 ft 43.55 °N, 109.69 °W | Updated 11 minutes ago

Haze
Haze
52 °F
Feels Like 52 °F
N
12
Wind Variable Wind from NW

Today
High -- | Low -- °F
--% Chance of Precip.
Yesterday
High -- | Low -- °F
Precip. -- in
Pressure 30.19 in
Visibility 2.5 miles
Clouds Clear
Dew Point 39 °F
Humidity 62%
Rainfall 0.00 in
Snow Depth Not available.
6:08 AM 8:46 PM
Waning Crescent, 13% visible
METAR KDUB 301335Z AUTO 31010KT 2 1/2SM HZ CLR 11/04 A3019 RMK AO2
Pressure 30.19 in
Visibility 2.5 miles
Clouds Clear
Dew Point 39 °F
Humidity 62%
Rainfall 0.00 in
Snow Depth Not available.
6:08 AM 8:46 PM
Waning Crescent, 13% visible
METAR KDUB 301335Z AUTO 31010KT 2 1/2SM HZ CLR 11/04 A3019 RMK AO2

10-Day Weather Forecast

Almanac

Astronomy

Jul. 30, 2016 Rise Set
Actual Time
Civil Twilight
Nautical Twilight
Astronomical Twilight
Moon
Length of Visible Light
Length of Day
Tomorrow will be .
, % of the Moon is Illuminated

Today's Extremes

State Highs State Lows

Community

WunderPhotos

Upload Photos

1,928,560 photos uploaded!

WunderBlog® & News

Nearby

Air Quality

  Air Quality AQ Index Pollutant
Not available.

Snow Depth

Station Depth Elevation

Earthquake Activity

City Distance Mag. Time & Date
Minimum magnitude displayed is 2.5.

Coastal Water Temperatures

Place Temperature

Stations

Nearby Weather Stations

Station Location Temp. Windchill Dew Point Humidity Wind Precip. Elev Updated Type
                   

Watches & Warnings

Fire Weather Warning
Issued: 1:55 AM MDT Jul. 30, 2016 – National Weather Service

... Red flag warning in effect from 1 PM this afternoon to 9 PM
MDT this evening for low relative humidity... warm
temperatures... breezy conditions... lightning and a Haines index
of 5 to 6...

The National Weather Service in Riverton has issued a red flag
warning... which is in effect from 1 PM this afternoon to 9 PM MDT
this evening. The Fire Weather Watch is no longer in effect.

* Wind... west 10 to 15 mph with gusts 25 mph at times.

* Humidity... as low as 12 percent.

* Thunderstorms... isolated dry lightning storms with strong and
erratic wind gusts as high as 50 mph.

* Haines index... 5 to 6

* impacts... any fires that develop or are ongoing will likely
spread rapidly. Outdoor burning is not recommended.

Precautionary/preparedness actions...

A red flag warning means that critical fire weather conditions
are either occurring now... .or will shortly. A combination of
strong winds... low relative humidity... and warm temperatures can
contribute to extreme fire behavior.